sensor_id;sensor_type;location;lat;lon;timestamp;P1;durP1;ratioP1;P2;durP2;ratioP2
20379;SDS011;10349;48.666;8.948;2022-10-31T13:45:14;5.03;;;4.50;;
20379;SDS011;10349;48.666;8.948;2022-10-31T14:25:33;6.70;;;6.10;;
20379;SDS011;10349;48.666;8.948;2022-10-31T14:28:02;17.20;;;5.80;;
20379;SDS011;10349;48.666;8.948;2022-10-31T14:53:05;3.87;;;3.57;;
20379;SDS011;10349;48.666;8.948;2022-10-31T14:55:42;4.10;;;3.80;;
20379;SDS011;10349;48.666;8.948;2022-10-31T14:58:17;6.43;;;4.13;;
20379;SDS011;10349;48.666;8.948;2022-10-31T15:00:50;5.03;;;4.43;;
20379;SDS011;10349;48.666;8.948;2022-10-31T15:03:29;7.90;;;4.03;;
20379;SDS011;10349;48.666;8.948;2022-10-31T15:06:05;5.23;;;4.70;;
20379;SDS011;10349;48.666;8.948;2022-10-31T15:08:40;7.80;;;4.07;;
20379;SDS011;10349;48.666;8.948;2022-10-31T15:16:58;5.43;;;4.07;;
20379;SDS011;10349;48.666;8.948;2022-10-31T15:19:30;5.70;;;5.10;;
20379;SDS011;10349;48.666;8.948;2022-10-31T15:22:01;4.90;;;4.50;;
20379;SDS011;10349;48.666;8.948;2022-10-31T15:24:30;5.83;;;4.80;;
20379;SDS011;10349;48.666;8.948;2022-10-31T15:29:54;6.50;;;4.23;;
20379;SDS011;10349;48.666;8.948;2022-10-31T15:32:25;4.90;;;4.40;;
20379;SDS011;10349;48.666;8.948;2022-10-31T15:37:34;5.30;;;4.80;;
20379;SDS011;10349;48.666;8.948;2022-10-31T15:40:11;7.93;;;5.00;;
20379;SDS011;10349;48.666;8.948;2022-10-31T15:42:42;7.17;;;3.97;;
20379;SDS011;10349;48.666;8.948;2022-10-31T15:45:25;4.33;;;4.07;;
20379;SDS011;10349;48.666;8.948;2022-10-31T15:48:02;9.13;;;5.47;;
20379;SDS011;10349;48.666;8.948;2022-10-31T15:50:46;5.17;;;4.73;;
20379;SDS011;10349;48.666;8.948;2022-10-31T15:53:16;7.17;;;5.30;;
20379;SDS011;10349;48.666;8.948;2022-10-31T15:55:46;5.77;;;5.27;;
20379;SDS011;10349;48.666;8.948;2022-10-31T15:58:19;8.00;;;4.37;;
20379;SDS011;10349;48.666;8.948;2022-10-31T16:03:30;6.97;;;5.77;;
20379;SDS011;10349;48.666;8.948;2022-10-31T16:06:00;8.20;;;7.50;;
20379;SDS011;10349;48.666;8.948;2022-10-31T16:08:33;16.43;;;6.90;;
20379;SDS011;10349;48.666;8.948;2022-10-31T16:11:36;9.00;;;5.67;;
20379;SDS011;10349;48.666;8.948;2022-10-31T16:14:06;9.80;;;7.63;;
20379;SDS011;10349;48.666;8.948;2022-10-31T16:16:42;7.77;;;6.97;;
20379;SDS011;10349;48.666;8.948;2022-10-31T16:19:15;8.60;;;6.67;;
20379;SDS011;10349;48.666;8.948;2022-10-31T16:21:47;11.13;;;6.93;;
20379;SDS011;10349;48.666;8.948;2022-10-31T16:24:24;7.37;;;5.80;;
20379;SDS011;10349;48.666;8.948;2022-10-31T16:27:02;11.67;;;5.57;;
20379;SDS011;10349;48.666;8.948;2022-10-31T16:29:43;10.60;;;6.73;;
20379;SDS011;10349;48.666;8.948;2022-10-31T16:32:24;7.00;;;6.40;;
20379;SDS011;10349;48.666;8.948;2022-10-31T16:34:57;7.27;;;6.57;;
20379;SDS011;10349;48.666;8.948;2022-10-31T16:37:42;6.97;;;6.23;;
20379;SDS011;10349;48.666;8.948;2022-10-31T16:40:12;8.13;;;6.90;;
20379;SDS011;10349;48.666;8.948;2022-10-31T16:42:39;13.53;;;6.67;;
20379;SDS011;10349;48.666;8.948;2022-10-31T16:45:06;47.70;;;24.53;;
20379;SDS011;10349;48.666;8.948;2022-10-31T16:47:33;53.53;;;29.20;;
20379;SDS011;10349;48.666;8.948;2022-10-31T16:49:59;41.77;;;25.90;;
20379;SDS011;10349;48.666;8.948;2022-10-31T16:52:26;19.53;;;12.40;;
20379;SDS011;10349;48.666;8.948;2022-10-31T16:54:52;14.97;;;10.30;;
20379;SDS011;10349;48.666;8.948;2022-10-31T16:57:20;23.00;;;13.40;;
20379;SDS011;10349;48.666;8.948;2022-10-31T16:59:52;32.60;;;18.03;;
20379;SDS011;10349;48.666;8.948;2022-10-31T17:02:23;30.30;;;15.27;;
20379;SDS011;10349;48.666;8.948;2022-10-31T17:04:51;18.80;;;10.33;;
20379;SDS011;10349;48.666;8.948;2022-10-31T17:07:23;9.80;;;7.63;;
20379;SDS011;10349;48.666;8.948;2022-10-31T17:12:31;10.80;;;7.37;;
20379;SDS011;10349;48.666;8.948;2022-10-31T17:15:02;8.80;;;7.40;;
20379;SDS011;10349;48.666;8.948;2022-10-31T17:17:37;8.27;;;6.60;;
20379;SDS011;10349;48.666;8.948;2022-10-31T17:20:11;10.20;;;6.23;;
20379;SDS011;10349;48.666;8.948;2022-10-31T17:22:59;16.77;;;14.90;;
20379;SDS011;10349;48.666;8.948;2022-10-31T17:25:32;22.23;;;15.93;;
20379;SDS011;10349;48.666;8.948;2022-10-31T17:28:10;25.20;;;14.33;;
20379;SDS011;10349;48.666;8.948;2022-10-31T17:33:47;18.37;;;12.30;;
20379;SDS011;10349;48.666;8.948;2022-10-31T17:36:13;14.90;;;10.97;;
20379;SDS011;10349;48.666;8.948;2022-10-31T17:38:40;15.53;;;10.30;;
20379;SDS011;10349;48.666;8.948;2022-10-31T17:41:06;12.90;;;10.27;;
20379;SDS011;10349;48.666;8.948;2022-10-31T17:43:32;13.87;;;10.50;;
20379;SDS011;10349;48.666;8.948;2022-10-31T17:45:58;14.00;;;9.43;;
20379;SDS011;10349;48.666;8.948;2022-10-31T17:48:25;12.60;;;11.40;;
20379;SDS011;10349;48.666;8.948;2022-10-31T17:50:52;15.97;;;12.13;;
20379;SDS011;10349;48.666;8.948;2022-10-31T17:53:17;18.80;;;11.93;;
20379;SDS011;10349;48.666;8.948;2022-10-31T17:55:44;16.43;;;12.70;;
20379;SDS011;10349;48.666;8.948;2022-10-31T17:58:10;25.40;;;14.67;;
20379;SDS011;10349;48.666;8.948;2022-10-31T18:00:40;25.40;;;15.23;;
20379;SDS011;10349;48.666;8.948;2022-10-31T18:03:06;18.00;;;12.50;;
20379;SDS011;10349;48.666;8.948;2022-10-31T18:05:32;22.23;;;13.43;;
20379;SDS011;10349;48.666;8.948;2022-10-31T18:07:58;25.63;;;14.60;;
20379;SDS011;10349;48.666;8.948;2022-10-31T18:10:24;18.27;;;13.50;;
20379;SDS011;10349;48.666;8.948;2022-10-31T18:12:50;18.40;;;13.90;;
20379;SDS011;10349;48.666;8.948;2022-10-31T18:15:16;24.03;;;15.67;;
20379;SDS011;10349;48.666;8.948;2022-10-31T18:17:42;24.80;;;16.57;;
20379;SDS011;10349;48.666;8.948;2022-10-31T18:20:09;23.90;;;16.70;;
20379;SDS011;10349;48.666;8.948;2022-10-31T18:22:35;25.27;;;15.30;;
20379;SDS011;10349;48.666;8.948;2022-10-31T18:25:01;19.03;;;13.50;;
20379;SDS011;10349;48.666;8.948;2022-10-31T18:27:28;51.43;;;32.10;;
20379;SDS011;10349;48.666;8.948;2022-10-31T18:29:54;28.60;;;20.53;;
20379;SDS011;10349;48.666;8.948;2022-10-31T18:32:21;91.33;;;46.27;;
20379;SDS011;10349;48.666;8.948;2022-10-31T18:34:47;40.33;;;22.60;;
20379;SDS011;10349;48.666;8.948;2022-10-31T18:37:12;22.57;;;15.90;;
20379;SDS011;10349;48.666;8.948;2022-10-31T18:39:38;16.60;;;13.50;;
20379;SDS011;10349;48.666;8.948;2022-10-31T18:42:04;31.47;;;19.03;;
20379;SDS011;10349;48.666;8.948;2022-10-31T18:44:30;27.10;;;16.37;;
20379;SDS011;10349;48.666;8.948;2022-10-31T18:46:56;12.03;;;9.73;;
20379;SDS011;10349;48.666;8.948;2022-10-31T18:49:22;17.20;;;10.63;;
20379;SDS011;10349;48.666;8.948;2022-10-31T18:51:49;22.80;;;13.97;;
20379;SDS011;10349;48.666;8.948;2022-10-31T18:54:15;19.10;;;12.77;;
20379;SDS011;10349;48.666;8.948;2022-10-31T18:56:41;29.87;;;20.30;;
20379;SDS011;10349;48.666;8.948;2022-10-31T18:59:07;50.20;;;23.90;;
20379;SDS011;10349;48.666;8.948;2022-10-31T19:01:33;27.40;;;16.93;;
20379;SDS011;10349;48.666;8.948;2022-10-31T19:03:59;18.53;;;12.80;;
20379;SDS011;10349;48.666;8.948;2022-10-31T19:06:25;17.67;;;12.07;;
20379;SDS011;10349;48.666;8.948;2022-10-31T19:09:02;18.77;;;11.80;;
20379;SDS011;10349;48.666;8.948;2022-10-31T19:11:31;12.63;;;10.40;;
20379;SDS011;10349;48.666;8.948;2022-10-31T19:13:57;20.20;;;13.10;;
20379;SDS011;10349;48.666;8.948;2022-10-31T19:16:23;20.47;;;12.90;;
20379;SDS011;10349;48.666;8.948;2022-10-31T19:18:52;41.77;;;26.63;;
20379;SDS011;10349;48.666;8.948;2022-10-31T19:21:20;33.57;;;21.90;;
20379;SDS011;10349;48.666;8.948;2022-10-31T19:23:45;38.13;;;20.80;;
20379;SDS011;10349;48.666;8.948;2022-10-31T19:26:11;31.33;;;17.27;;
20379;SDS011;10349;48.666;8.948;2022-10-31T19:28:38;23.27;;;14.20;;
20379;SDS011;10349;48.666;8.948;2022-10-31T19:31:05;19.30;;;14.60;;
20379;SDS011;10349;48.666;8.948;2022-10-31T19:33:31;19.03;;;13.33;;
20379;SDS011;10349;48.666;8.948;2022-10-31T19:36:02;16.87;;;12.97;;
20379;SDS011;10349;48.666;8.948;2022-10-31T19:38:33;16.67;;;13.43;;
20379;SDS011;10349;48.666;8.948;2022-10-31T19:41:04;21.30;;;14.40;;
20379;SDS011;10349;48.666;8.948;2022-10-31T19:43:35;17.40;;;13.70;;
20379;SDS011;10349;48.666;8.948;2022-10-31T19:46:01;20.43;;;13.83;;
20379;SDS011;10349;48.666;8.948;2022-10-31T19:48:28;19.87;;;12.00;;
20379;SDS011;10349;48.666;8.948;2022-10-31T19:51:02;22.97;;;14.27;;
20379;SDS011;10349;48.666;8.948;2022-10-31T19:53:29;22.40;;;16.00;;
20379;SDS011;10349;48.666;8.948;2022-10-31T19:55:56;17.60;;;13.17;;
20379;SDS011;10349;48.666;8.948;2022-10-31T19:58:23;18.53;;;12.53;;
20379;SDS011;10349;48.666;8.948;2022-10-31T20:00:49;23.30;;;15.10;;
20379;SDS011;10349;48.666;8.948;2022-10-31T20:03:15;19.77;;;13.50;;
20379;SDS011;10349;48.666;8.948;2022-10-31T20:05:41;22.33;;;14.13;;
20379;SDS011;10349;48.666;8.948;2022-10-31T20:08:14;83.97;;;39.47;;
20379;SDS011;10349;48.666;8.948;2022-10-31T20:11:00;46.90;;;25.87;;
20379;SDS011;10349;48.666;8.948;2022-10-31T20:13:27;49.20;;;29.20;;
20379;SDS011;10349;48.666;8.948;2022-10-31T20:16:04;28.90;;;18.07;;
20379;SDS011;10349;48.666;8.948;2022-10-31T20:18:33;20.87;;;14.90;;
20379;SDS011;10349;48.666;8.948;2022-10-31T20:21:10;22.13;;;15.87;;
20379;SDS011;10349;48.666;8.948;2022-10-31T20:23:39;16.93;;;12.53;;
20379;SDS011;10349;48.666;8.948;2022-10-31T20:26:07;16.47;;;11.93;;
20379;SDS011;10349;48.666;8.948;2022-10-31T20:28:34;17.30;;;11.60;;
20379;SDS011;10349;48.666;8.948;2022-10-31T20:31:00;12.47;;;10.80;;
20379;SDS011;10349;48.666;8.948;2022-10-31T20:33:31;13.80;;;10.67;;
20379;SDS011;10349;48.666;8.948;2022-10-31T20:35:57;13.60;;;10.80;;
20379;SDS011;10349;48.666;8.948;2022-10-31T20:38:22;17.60;;;12.47;;
20379;SDS011;10349;48.666;8.948;2022-10-31T20:40:48;16.70;;;12.50;;
20379;SDS011;10349;48.666;8.948;2022-10-31T20:43:14;17.03;;;10.80;;
20379;SDS011;10349;48.666;8.948;2022-10-31T20:45:41;26.67;;;16.90;;
20379;SDS011;10349;48.666;8.948;2022-10-31T20:48:07;38.13;;;20.10;;
20379;SDS011;10349;48.666;8.948;2022-10-31T20:50:32;25.17;;;15.20;;
20379;SDS011;10349;48.666;8.948;2022-10-31T20:52:58;14.80;;;11.20;;
20379;SDS011;10349;48.666;8.948;2022-10-31T20:55:24;13.63;;;12.10;;
20379;SDS011;10349;48.666;8.948;2022-10-31T20:57:50;18.33;;;14.60;;
20379;SDS011;10349;48.666;8.948;2022-10-31T21:00:16;24.13;;;16.60;;
20379;SDS011;10349;48.666;8.948;2022-10-31T21:02:42;23.33;;;15.90;;
20379;SDS011;10349;48.666;8.948;2022-10-31T21:05:08;29.73;;;17.40;;
20379;SDS011;10349;48.666;8.948;2022-10-31T21:07:35;23.33;;;12.40;;
20379;SDS011;10349;48.666;8.948;2022-10-31T21:10:02;36.63;;;23.17;;
20379;SDS011;10349;48.666;8.948;2022-10-31T21:12:28;23.97;;;15.73;;
20379;SDS011;10349;48.666;8.948;2022-10-31T21:14:54;22.20;;;15.53;;
20379;SDS011;10349;48.666;8.948;2022-10-31T21:17:19;24.83;;;17.60;;
20379;SDS011;10349;48.666;8.948;2022-10-31T21:19:46;30.20;;;15.70;;
20379;SDS011;10349;48.666;8.948;2022-10-31T21:22:12;24.83;;;14.73;;
20379;SDS011;10349;48.666;8.948;2022-10-31T21:24:38;21.93;;;15.83;;
20379;SDS011;10349;48.666;8.948;2022-10-31T21:27:03;45.97;;;27.23;;
20379;SDS011;10349;48.666;8.948;2022-10-31T21:29:29;43.23;;;25.27;;
20379;SDS011;10349;48.666;8.948;2022-10-31T21:31:55;32.20;;;22.37;;
20379;SDS011;10349;48.666;8.948;2022-10-31T21:34:20;32.63;;;17.17;;
20379;SDS011;10349;48.666;8.948;2022-10-31T21:36:46;19.53;;;13.93;;
20379;SDS011;10349;48.666;8.948;2022-10-31T21:39:12;21.67;;;12.40;;
20379;SDS011;10349;48.666;8.948;2022-10-31T21:41:38;20.17;;;13.30;;
20379;SDS011;10349;48.666;8.948;2022-10-31T21:44:04;20.50;;;15.70;;
20379;SDS011;10349;48.666;8.948;2022-10-31T21:46:30;20.23;;;14.57;;
20379;SDS011;10349;48.666;8.948;2022-10-31T21:48:57;17.17;;;11.53;;
20379;SDS011;10349;48.666;8.948;2022-10-31T21:51:24;18.97;;;12.37;;
20379;SDS011;10349;48.666;8.948;2022-10-31T21:53:53;16.43;;;14.07;;
20379;SDS011;10349;48.666;8.948;2022-10-31T21:56:38;20.90;;;11.90;;
20379;SDS011;10349;48.666;8.948;2022-10-31T21:59:04;18.33;;;12.33;;
20379;SDS011;10349;48.666;8.948;2022-10-31T22:01:30;22.50;;;12.10;;
20379;SDS011;10349;48.666;8.948;2022-10-31T22:03:56;22.07;;;14.60;;
20379;SDS011;10349;48.666;8.948;2022-10-31T22:06:23;21.63;;;12.20;;
20379;SDS011;10349;48.666;8.948;2022-10-31T22:08:50;18.10;;;12.43;;
20379;SDS011;10349;48.666;8.948;2022-10-31T22:11:19;26.40;;;13.30;;
20379;SDS011;10349;48.666;8.948;2022-10-31T22:13:46;19.60;;;14.40;;
20379;SDS011;10349;48.666;8.948;2022-10-31T22:16:13;15.63;;;11.60;;
20379;SDS011;10349;48.666;8.948;2022-10-31T22:18:41;17.23;;;11.43;;
20379;SDS011;10349;48.666;8.948;2022-10-31T22:21:09;15.30;;;11.23;;
20379;SDS011;10349;48.666;8.948;2022-10-31T22:23:36;17.57;;;11.90;;
20379;SDS011;10349;48.666;8.948;2022-10-31T22:26:03;13.30;;;10.30;;
20379;SDS011;10349;48.666;8.948;2022-10-31T22:28:44;25.63;;;12.40;;
20379;SDS011;10349;48.666;8.948;2022-10-31T22:31:12;16.03;;;10.33;;
20379;SDS011;10349;48.666;8.948;2022-10-31T22:33:42;15.50;;;11.97;;
20379;SDS011;10349;48.666;8.948;2022-10-31T22:36:10;19.60;;;10.90;;
20379;SDS011;10349;48.666;8.948;2022-10-31T22:38:41;14.13;;;11.17;;
20379;SDS011;10349;48.666;8.948;2022-10-31T22:41:09;10.63;;;9.60;;
20379;SDS011;10349;48.666;8.948;2022-10-31T22:43:36;11.27;;;9.63;;
20379;SDS011;10349;48.666;8.948;2022-10-31T22:46:03;10.63;;;9.00;;
20379;SDS011;10349;48.666;8.948;2022-10-31T22:48:32;14.10;;;9.20;;
20379;SDS011;10349;48.666;8.948;2022-10-31T22:51:05;10.80;;;9.00;;
20379;SDS011;10349;48.666;8.948;2022-10-31T22:53:32;27.13;;;9.27;;
20379;SDS011;10349;48.666;8.948;2022-10-31T22:55:59;9.20;;;8.00;;
20379;SDS011;10349;48.666;8.948;2022-10-31T22:58:27;10.93;;;9.33;;
20379;SDS011;10349;48.666;8.948;2022-10-31T23:00:53;13.90;;;9.40;;
20379;SDS011;10349;48.666;8.948;2022-10-31T23:03:19;11.60;;;8.70;;
20379;SDS011;10349;48.666;8.948;2022-10-31T23:05:55;10.23;;;7.57;;
20379;SDS011;10349;48.666;8.948;2022-10-31T23:08:22;12.63;;;9.40;;
20379;SDS011;10349;48.666;8.948;2022-10-31T23:10:48;11.53;;;7.90;;
20379;SDS011;10349;48.666;8.948;2022-10-31T23:13:13;9.07;;;7.60;;
20379;SDS011;10349;48.666;8.948;2022-10-31T23:15:58;9.23;;;8.33;;
20379;SDS011;10349;48.666;8.948;2022-10-31T23:18:24;8.43;;;7.60;;
20379;SDS011;10349;48.666;8.948;2022-10-31T23:20:50;10.00;;;7.90;;
20379;SDS011;10349;48.666;8.948;2022-10-31T23:23:17;11.63;;;7.83;;
20379;SDS011;10349;48.666;8.948;2022-10-31T23:25:43;10.77;;;8.53;;
20379;SDS011;10349;48.666;8.948;2022-10-31T23:28:28;17.37;;;9.33;;
20379;SDS011;10349;48.666;8.948;2022-10-31T23:30:54;12.90;;;9.03;;
20379;SDS011;10349;48.666;8.948;2022-10-31T23:33:20;13.13;;;9.00;;
20379;SDS011;10349;48.666;8.948;2022-10-31T23:35:45;16.13;;;9.17;;
20379;SDS011;10349;48.666;8.948;2022-10-31T23:38:11;8.63;;;7.60;;
20379;SDS011;10349;48.666;8.948;2022-10-31T23:40:37;9.07;;;8.20;;
20379;SDS011;10349;48.666;8.948;2022-10-31T23:43:05;11.60;;;8.60;;
20379;SDS011;10349;48.666;8.948;2022-10-31T23:45:31;10.67;;;8.97;;
20379;SDS011;10349;48.666;8.948;2022-10-31T23:47:57;8.47;;;7.63;;
20379;SDS011;10349;48.666;8.948;2022-10-31T23:50:23;11.33;;;9.10;;
20379;SDS011;10349;48.666;8.948;2022-10-31T23:52:48;13.03;;;7.30;;
20379;SDS011;10349;48.666;8.948;2022-10-31T23:55:14;10.43;;;7.87;;
20379;SDS011;10349;48.666;8.948;2022-10-31T23:57:40;9.73;;;7.83;;
